Time;durP1;ratioP1;P1;durP2;ratioP2;P2;SDS_P1;SDS_P2;PMS_P1;PMS_P2;Temp;Humidity;BMP_temperature;BMP_pressure;BME280_temperature;BME280_humidity;BME280_pressure;Samples;Min_cycle;Max_cycle;Signal;HPM_P1;HPM_P2
2021/05/22 00:01:48;;;;;;;4.70;1.87;;;10.00;99.90;;;;;;5088143;28;20175;-68
2021/05/22 00:04:14;;;;;;;5.33;1.90;;;10.00;99.90;;;;;;5074879;28;20569;-68
2021/05/22 00:06:40;;;;;;;6.10;1.70;;;10.00;99.90;;;;;;5075058;28;20172;-68
2021/05/22 00:09:06;;;;;;;2.93;1.43;;;10.00;99.90;;;;;;5074533;28;20176;-68
2021/05/22 00:11:33;;;;;;;4.03;1.83;;;10.00;99.90;;;;;;5075041;28;20172;-68
2021/05/22 00:14:00;;;;;;;4.43;1.33;;;10.00;99.90;;;;;;5075378;28;20429;-68
2021/05/22 00:16:25;;;;;;;5.67;1.90;;;9.90;99.90;;;;;;5074994;28;21005;-68
2021/05/22 00:18:51;;;;;;;4.00;1.83;;;9.90;99.90;;;;;;5074870;28;20443;-68
2021/05/22 00:21:16;;;;;;;3.47;1.97;;;10.00;99.90;;;;;;5074998;28;20156;-68
2021/05/22 00:23:42;;;;;;;5.40;2.17;;;10.00;99.90;;;;;;5074676;28;20195;-68
2021/05/22 00:26:08;;;;;;;5.60;2.53;;;10.00;99.90;;;;;;5074341;28;20290;-68
2021/05/22 00:28:33;;;;;;;4.80;1.60;;;10.00;99.90;;;;;;5073418;28;20159;-68
2021/05/22 00:30:59;;;;;;;5.73;1.57;;;10.00;99.90;;;;;;5081411;28;20175;-68
2021/05/22 00:33:24;;;;;;;3.70;2.37;;;10.00;99.90;;;;;;5074249;28;20414;-68
2021/05/22 00:35:50;;;;;;;2.17;1.50;;;10.00;99.90;;;;;;5088601;28;20254;-68
2021/05/22 00:38:16;;;;;;;2.23;1.87;;;9.90;99.90;;;;;;5094612;28;20667;-68
2021/05/22 00:40:42;;;;;;;3.53;1.73;;;9.90;99.90;;;;;;5094337;28;20190;-68
2021/05/22 00:43:07;;;;;;;4.17;1.40;;;9.90;99.90;;;;;;5094406;28;20931;-68
2021/05/22 00:45:35;;;;;;;3.00;1.73;;;9.90;99.90;;;;;;5094579;28;20174;-68
2021/05/22 00:48:01;;;;;;;4.70;1.77;;;9.90;99.90;;;;;;5079656;28;20198;-68
2021/05/22 00:50:31;;;;;;;3.23;2.00;;;9.90;99.90;;;;;;5074471;28;20435;-68
2021/05/22 00:52:57;;;;;;;3.30;1.83;;;9.90;99.90;;;;;;5074064;28;20399;-68
2021/05/22 00:55:23;;;;;;;3.30;1.80;;;9.80;99.90;;;;;;5073853;28;20527;-68
2021/05/22 00:57:49;;;;;;;4.03;1.83;;;9.80;99.90;;;;;;5073792;28;20405;-68
2021/05/22 01:00:17;;;;;;;3.40;1.80;;;9.80;99.90;;;;;;5087917;28;20441;-68
2021/05/22 01:02:44;;;;;;;5.47;1.90;;;9.80;99.90;;;;;;5093974;28;20741;-68
2021/05/22 01:05:10;;;;;;;13.47;3.53;;;9.80;99.90;;;;;;5085260;28;20462;-68
2021/05/22 01:07:36;;;;;;;4.03;2.50;;;9.70;99.90;;;;;;5093816;28;20765;-68
2021/05/22 01:10:04;;;;;;;5.30;1.70;;;9.80;99.90;;;;;;5093944;28;20378;-68
2021/05/22 01:12:34;;;;;;;4.87;2.33;;;9.70;99.90;;;;;;5093900;28;20390;-68
2021/05/22 01:15:06;;;;;;;3.50;1.97;;;9.70;99.90;;;;;;5093722;28;20408;-68
2021/05/22 01:17:34;;;;;;;5.07;1.97;;;9.70;99.90;;;;;;5093719;28;20402;-68
2021/05/22 01:22:44;;;;;;;6.83;2.60;;;9.70;99.90;;;;;;5111655;27;20545;-69
2021/05/22 01:25:31;;;;;;;6.50;2.00;;;9.70;99.90;;;;;;5111115;28;20418;-69
2021/05/22 01:27:59;;;;;;;3.67;2.00;;;9.60;99.90;;;;;;5110015;28;20494;-69
2021/05/22 01:30:24;;;;;;;6.87;1.90;;;9.60;99.90;;;;;;5110905;28;20412;-69
2021/05/22 01:32:50;;;;;;;3.93;1.87;;;9.60;99.90;;;;;;5110833;28;20403;-69
2021/05/22 01:35:17;;;;;;;4.87;1.90;;;9.60;99.90;;;;;;5111282;28;20674;-69
2021/05/22 01:37:43;;;;;;;4.30;1.40;;;9.50;99.90;;;;;;5110509;28;20418;-69
2021/05/22 01:40:10;;;;;;;9.00;2.53;;;9.50;99.90;;;;;;5110845;28;20957;-68
2021/05/22 01:42:36;;;;;;;3.73;1.90;;;9.50;99.90;;;;;;5110615;28;20250;-69
2021/05/22 01:45:04;;;;;;;5.37;2.07;;;9.50;99.90;;;;;;5110581;28;20431;-68
2021/05/22 01:47:32;;;;;;;7.30;2.77;;;9.50;99.90;;;;;;5110572;28;20411;-68
2021/05/22 01:50:01;;;;;;;7.70;2.70;;;9.50;99.90;;;;;;5111165;28;20428;-69
2021/05/22 01:52:28;;;;;;;6.13;2.47;;;9.50;99.90;;;;;;5110378;28;20442;-68
2021/05/22 01:54:55;;;;;;;5.00;2.43;;;9.50;99.90;;;;;;5110213;28;20415;-68
2021/05/22 01:57:21;;;;;;;3.53;1.80;;;9.50;99.90;;;;;;5110230;28;20396;-69
2021/05/22 01:59:47;;;;;;;6.00;1.87;;;9.50;99.90;;;;;;5098167;28;20475;-68
2021/05/22 02:02:13;;;;;;;6.37;2.00;;;9.50;99.90;;;;;;5090067;28;20443;-69
2021/05/22 02:04:44;;;;;;;5.37;2.20;;;9.60;99.90;;;;;;5090440;28;21039;-69
2021/05/22 02:07:11;;;;;;;4.80;1.90;;;9.60;99.90;;;;;;5089616;28;20175;-69
2021/05/22 02:09:38;;;;;;;7.97;2.20;;;9.60;99.90;;;;;;5089524;28;20425;-68
2021/05/22 02:12:06;;;;;;;2.50;1.60;;;9.60;99.90;;;;;;5097063;28;20779;-68
2021/05/22 02:14:34;;;;;;;4.77;1.70;;;9.60;99.90;;;;;;5109738;28;20414;-69
2021/05/22 02:17:04;;;;;;;7.20;2.40;;;9.60;99.90;;;;;;5110246;28;20893;-69
2021/05/22 02:19:31;;;;;;;3.67;1.53;;;9.50;99.90;;;;;;5110147;28;20396;-69
2021/05/22 02:22:01;;;;;;;4.67;1.70;;;9.50;99.90;;;;;;5109826;28;20455;-69
2021/05/22 02:24:26;;;;;;;3.97;1.40;;;9.50;99.90;;;;;;5109975;28;20419;-68
2021/05/22 02:26:56;;;;;;;4.43;1.87;;;9.50;99.90;;;;;;5109760;28;20415;-68
2021/05/22 02:29:24;;;;;;;3.73;1.53;;;9.40;99.90;;;;;;5101223;28;20171;-69
2021/05/22 02:31:51;;;;;;;3.87;2.03;;;9.40;99.90;;;;;;5102785;28;20947;-69
2021/05/22 02:34:22;;;;;;;5.63;2.20;;;9.40;99.90;;;;;;5095907;28;20429;-68
2021/05/22 02:36:51;;;;;;;3.43;1.47;;;9.40;99.90;;;;;;5096103;28;20389;-69
2021/05/22 02:39:17;;;;;;;6.60;2.17;;;9.40;99.90;;;;;;5095951;28;20889;-69
2021/05/22 02:41:45;;;;;;;3.80;1.57;;;9.40;99.90;;;;;;5095912;28;20481;-69
2021/05/22 02:44:14;;;;;;;3.27;1.50;;;9.40;99.90;;;;;;5095817;28;20603;-69
2021/05/22 02:46:42;;;;;;;3.00;1.70;;;9.40;99.90;;;;;;5096323;28;20935;-69
2021/05/22 02:49:11;;;;;;;3.17;1.50;;;9.30;99.90;;;;;;5095980;28;20526;-69
2021/05/22 02:51:39;;;;;;;3.40;2.17;;;9.30;99.90;;;;;;5095781;28;20438;-69
2021/05/22 02:54:06;;;;;;;6.00;1.97;;;9.30;99.90;;;;;;5095936;28;20421;-69
2021/05/22 02:56:34;;;;;;;6.07;2.03;;;9.30;99.90;;;;;;5096101;28;20389;-72
2021/05/22 02:59:01;;;;;;;4.27;1.60;;;9.40;99.90;;;;;;5088575;28;20461;-69
2021/05/22 03:01:27;;;;;;;6.40;1.87;;;9.40;99.90;;;;;;5075242;28;20813;-69
2021/05/22 03:03:54;;;;;;;7.30;2.20;;;9.40;99.90;;;;;;5089673;28;20412;-69
2021/05/22 03:06:21;;;;;;;2.73;1.73;;;9.50;99.90;;;;;;5095370;28;20782;-69
2021/05/22 03:08:49;;;;;;;6.73;1.83;;;9.50;99.90;;;;;;5094943;28;20415;-69
2021/05/22 03:11:17;;;;;;;3.90;2.27;;;9.50;99.90;;;;;;5095389;28;20389;-69
2021/05/22 03:13:43;;;;;;;6.40;2.20;;;9.60;99.90;;;;;;5095491;28;20389;-69
2021/05/22 03:16:09;;;;;;;4.50;1.73;;;9.60;99.90;;;;;;5095254;28;20399;-69
2021/05/22 03:18:34;;;;;;;4.73;1.90;;;9.60;99.90;;;;;;5095510;28;20389;-69
2021/05/22 03:21:00;;;;;;;4.10;2.10;;;9.70;99.90;;;;;;5094626;28;20234;-69
2021/05/22 03:23:25;;;;;;;8.20;2.07;;;9.60;99.90;;;;;;5095252;28;20156;-69
2021/05/22 03:25:51;;;;;;;3.80;2.10;;;9.60;99.90;;;;;;5094918;28;20151;-69
2021/05/22 03:28:17;;;;;;;3.80;1.80;;;9.60;99.90;;;;;;5093477;28;20151;-69
2021/05/22 03:30:42;;;;;;;7.30;2.00;;;9.60;99.90;;;;;;5079027;28;20412;-69
2021/05/22 03:33:08;;;;;;;5.43;1.73;;;9.60;99.90;;;;;;5094942;28;20173;-69
2021/05/22 03:35:34;;;;;;;6.20;1.73;;;9.50;99.90;;;;;;5094849;28;20166;-69
2021/05/22 03:37:59;;;;;;;6.03;2.10;;;9.50;99.90;;;;;;5094474;28;20646;-69
2021/05/22 03:40:25;;;;;;;4.37;1.70;;;9.50;99.90;;;;;;5094501;28;20242;-69
2021/05/22 03:42:50;;;;;;;3.83;1.50;;;9.50;99.90;;;;;;5094647;28;20556;-69
2021/05/22 03:45:16;;;;;;;5.60;2.00;;;9.50;99.90;;;;;;5093708;28;20204;-69
2021/05/22 03:47:42;;;;;;;3.20;1.80;;;9.50;99.90;;;;;;5094625;28;20159;-69
2021/05/22 03:50:08;;;;;;;6.23;2.00;;;9.50;99.90;;;;;;5094345;28;20182;-69
2021/05/22 03:52:33;;;;;;;5.27;2.00;;;9.50;99.90;;;;;;5094757;28;20166;-69
2021/05/22 03:54:59;;;;;;;5.73;2.53;;;9.50;99.90;;;;;;5094291;28;20983;-69
2021/05/22 03:57:24;;;;;;;7.63;2.93;;;9.50;99.90;;;;;;5094581;28;20177;-69
2021/05/22 03:59:50;;;;;;;4.83;1.83;;;9.60;99.90;;;;;;5077502;28;20218;-69
2021/05/22 04:02:15;;;;;;;3.63;1.90;;;9.60;99.90;;;;;;5074638;28;20243;-69
2021/05/22 04:04:41;;;;;;;6.20;1.90;;;9.70;99.90;;;;;;5073918;28;20178;-69
2021/05/22 04:07:07;;;;;;;5.87;2.00;;;9.70;99.90;;;;;;5074050;28;20163;-69
2021/05/22 04:09:32;;;;;;;7.07;2.07;;;9.70;99.90;;;;;;5073891;28;20167;-69
2021/05/22 04:11:58;;;;;;;6.70;2.33;;;9.80;99.90;;;;;;5089030;28;20544;-69
2021/05/22 04:14:23;;;;;;;5.40;2.00;;;9.80;99.90;;;;;;5094503;28;20163;-69
2021/05/22 04:16:49;;;;;;;7.47;2.07;;;9.80;99.90;;;;;;5094628;28;20555;-69
2021/05/22 04:19:14;;;;;;;4.10;2.00;;;9.90;99.90;;;;;;5093909;28;20501;-69
2021/05/22 04:21:40;;;;;;;4.60;2.13;;;9.90;99.90;;;;;;5093439;28;20657;-69
2021/05/22 04:24:06;;;;;;;8.50;2.50;;;9.90;99.90;;;;;;5093949;28;20231;-69
2021/05/22 04:26:32;;;;;;;9.90;2.37;;;9.90;99.90;;;;;;5094022;28;20555;-69
2021/05/22 04:28:57;;;;;;;4.50;1.70;;;10.00;99.90;;;;;;5084794;28;20432;-69
2021/05/22 04:31:23;;;;;;;6.73;2.37;;;10.00;99.90;;;;;;5084236;28;20224;-69
2021/05/22 04:33:48;;;;;;;2.93;2.10;;;10.00;99.90;;;;;;5093877;28;20585;-69
2021/05/22 04:36:14;;;;;;;3.43;1.93;;;10.00;99.90;;;;;;5093878;28;20178;-69
2021/05/22 04:38:40;;;;;;;5.37;1.83;;;10.00;99.90;;;;;;5093895;28;20673;-69
2021/05/22 04:41:05;;;;;;;3.60;2.10;;;10.10;99.90;;;;;;5093767;28;20195;-69
2021/05/22 04:43:31;;;;;;;5.37;2.23;;;10.10;99.90;;;;;;5093621;28;20439;-69
2021/05/22 04:45:57;;;;;;;6.80;1.97;;;10.10;99.90;;;;;;5093587;28;20171;-69
2021/05/22 04:48:22;;;;;;;5.70;2.40;;;10.10;99.90;;;;;;5093417;28;20253;-69
2021/05/22 04:50:48;;;;;;;4.60;2.30;;;10.00;99.90;;;;;;5093322;28;20826;-67
2021/05/22 04:53:14;;;;;;;3.43;2.07;;;10.10;99.90;;;;;;5093382;28;20639;-67
2021/05/22 04:55:40;;;;;;;4.40;1.93;;;10.10;99.90;;;;;;5093215;28;20204;-67
2021/05/22 04:58:05;;;;;;;4.17;1.80;;;10.00;99.90;;;;;;5089318;28;20425;-67
2021/05/22 05:00:31;;;;;;;4.43;2.00;;;10.00;99.90;;;;;;5073124;28;20199;-67
2021/05/22 05:02:57;;;;;;;5.23;2.43;;;10.00;99.90;;;;;;5087931;28;20257;-67
2021/05/22 05:05:23;;;;;;;5.60;2.50;;;9.90;99.90;;;;;;5091410;28;20213;-70
2021/05/22 05:07:49;;;;;;;7.03;2.60;;;9.90;99.90;;;;;;5093175;28;20177;-70
2021/05/22 05:10:15;;;;;;;6.07;2.27;;;9.90;99.90;;;;;;5091727;28;20409;-67
2021/05/22 05:12:41;;;;;;;5.63;2.30;;;9.90;99.90;;;;;;5094028;28;20403;-67
2021/05/22 05:15:07;;;;;;;7.40;2.40;;;9.90;99.90;;;;;;5093625;28;20401;-67
2021/05/22 05:17:33;;;;;;;3.97;2.07;;;9.90;99.90;;;;;;5093372;28;20170;-69
2021/05/22 05:19:59;;;;;;;8.50;3.03;;;9.80;99.90;;;;;;5092943;28;20948;-69
2021/05/22 05:22:26;;;;;;;4.70;2.23;;;9.80;99.90;;;;;;5093196;28;20492;-69
2021/05/22 05:24:53;;;;;;;6.80;2.43;;;9.80;99.90;;;;;;5093535;28;20392;-69
2021/05/22 05:27:19;;;;;;;7.20;2.20;;;9.90;99.90;;;;;;5093596;28;20389;-69
2021/05/22 05:29:44;;;;;;;6.77;2.20;;;9.90;99.90;;;;;;5093495;28;20406;-69
2021/05/22 05:32:11;;;;;;;5.07;2.53;;;10.00;99.90;;;;;;5092905;28;20548;-69
2021/05/22 05:34:38;;;;;;;3.60;2.10;;;10.00;99.90;;;;;;5093015;28;20216;-69
2021/05/22 05:37:04;;;;;;;5.73;2.00;;;10.10;99.90;;;;;;5092858;28;20929;-69
2021/05/22 05:39:29;;;;;;;3.50;2.40;;;10.20;99.90;;;;;;5091966;28;20414;-69
2021/05/22 05:41:55;;;;;;;5.70;2.57;;;10.30;99.90;;;;;;5073111;28;20649;-69
2021/05/22 05:44:21;;;;;;;7.70;2.43;;;10.50;99.90;;;;;;5072967;28;20605;-69
2021/05/22 05:46:46;;;;;;;7.53;2.43;;;10.60;99.90;;;;;;5072902;28;20295;-69
2021/05/22 05:49:12;;;;;;;4.17;1.80;;;10.70;99.90;;;;;;5072675;28;20169;-69
2021/05/22 05:51:37;;;;;;;4.83;1.90;;;10.80;99.90;;;;;;5072712;28;20171;-69
2021/05/22 05:54:04;;;;;;;8.80;2.60;;;10.80;99.90;;;;;;5088806;28;20189;-69
2021/05/22 05:56:29;;;;;;;9.73;2.30;;;10.90;99.90;;;;;;5093392;28;20215;-69
2021/05/22 05:58:55;;;;;;;4.80;2.13;;;11.00;99.90;;;;;;5092923;28;20819;-69
2021/05/22 06:01:20;;;;;;;6.30;2.40;;;11.10;99.90;;;;;;5092543;28;20245;-69
2021/05/22 06:03:48;;;;;;;6.80;2.30;;;11.20;99.90;;;;;;5092978;28;20595;-69
2021/05/22 06:06:13;;;;;;;7.70;2.00;;;11.30;99.90;;;;;;5092854;28;20549;-69
2021/05/22 06:08:39;;;;;;;5.90;1.97;;;11.40;99.90;;;;;;5095585;28;20464;-69
2021/05/22 06:11:06;;;;;;;4.03;1.70;;;11.40;99.90;;;;;;5082519;28;20183;-69
2021/05/22 06:13:34;;;;;;;3.30;1.70;;;11.30;99.90;;;;;;5076587;28;20209;-69
2021/05/22 06:16:04;;;;;;;10.00;2.37;;;11.40;99.90;;;;;;5076022;28;20412;-69
2021/05/22 06:18:32;;;;;;;5.07;1.93;;;11.50;99.90;;;;;;5076040;28;20411;-69
2021/05/22 06:20:59;;;;;;;4.47;1.80;;;11.50;99.90;;;;;;5076082;28;20456;-69
2021/05/22 06:23:24;;;;;;;6.47;2.20;;;11.50;99.90;;;;;;5076129;28;20849;-69
2021/05/22 06:25:50;;;;;;;7.50;1.50;;;11.50;99.90;;;;;;5076277;28;20405;-69
2021/05/22 06:28:16;;;;;;;3.57;1.80;;;11.40;99.90;;;;;;5093968;28;20174;-69
2021/05/22 06:30:42;;;;;;;3.60;1.60;;;11.40;99.90;;;;;;5096212;28;20514;-69
2021/05/22 06:33:07;;;;;;;4.37;1.80;;;11.40;99.90;;;;;;5096171;28;20949;-69
2021/05/22 06:35:33;;;;;;;6.97;2.00;;;11.40;99.90;;;;;;5096061;28;20159;-69
2021/05/22 06:37:59;;;;;;;4.37;1.90;;;11.40;99.90;;;;;;5096262;28;20184;-69
2021/05/22 06:40:24;;;;;;;6.10;1.80;;;11.40;99.90;;;;;;5087963;28;20171;-69
2021/05/22 06:42:50;;;;;;;3.63;1.80;;;11.30;99.90;;;;;;5075953;28;20163;-69
2021/05/22 06:45:17;;;;;;;4.20;1.70;;;11.30;99.90;;;;;;5093068;28;20707;-69
2021/05/22 06:47:42;;;;;;;4.60;1.27;;;11.30;99.90;;;;;;5095855;28;20174;-69
2021/05/22 06:50:09;;;;;;;4.50;1.60;;;11.30;99.90;;;;;;5076033;28;20419;-69
2021/05/22 06:52:35;;;;;;;2.60;1.20;;;11.20;99.90;;;;;;5075617;28;20164;-69
2021/05/22 06:55:01;;;;;;;3.90;1.60;;;11.20;99.90;;;;;;5075617;28;20771;-70
2021/05/22 06:57:27;;;;;;;4.10;1.63;;;11.10;99.90;;;;;;5075627;28;20439;-69
2021/05/22 06:59:53;;;;;;;2.20;1.10;;;11.10;99.90;;;;;;5075273;28;20942;-69
2021/05/22 07:02:19;;;;;;;5.43;1.40;;;11.00;99.90;;;;;;5093033;28;20694;-69
2021/05/22 07:04:44;;;;;;;4.07;1.57;;;10.90;99.90;;;;;;5095658;28;20393;-69
2021/05/22 07:07:10;;;;;;;3.27;1.47;;;10.80;99.90;;;;;;5095528;28;20159;-69
2021/05/22 07:09:35;;;;;;;2.67;1.00;;;10.70;99.90;;;;;;5094596;28;20204;-69
2021/05/22 07:12:01;;;;;;;3.20;1.73;;;10.70;99.90;;;;;;5075185;28;20351;-69
2021/05/22 07:14:28;;;;;;;5.07;2.00;;;10.70;99.90;;;;;;5075127;28;20614;-69
2021/05/22 07:16:55;;;;;;;4.10;1.73;;;10.70;99.90;;;;;;5075021;28;20641;-68
2021/05/22 07:19:21;;;;;;;5.83;1.80;;;10.60;99.90;;;;;;5093349;28;20471;-69
2021/05/22 07:21:46;;;;;;;3.40;1.60;;;10.60;99.90;;;;;;5094979;28;20489;-70
2021/05/22 07:24:12;;;;;;;4.47;1.40;;;10.60;99.90;;;;;;5095552;28;20161;-69
2021/05/22 07:26:38;;;;;;;2.30;1.10;;;10.60;99.90;;;;;;5095312;28;20206;-69
2021/05/22 07:29:04;;;;;;;2.23;1.63;;;10.60;99.90;;;;;;5095017;28;20156;-68
2021/05/22 07:31:32;;;;;;;4.43;2.40;;;10.60;99.90;;;;;;5094905;28;20216;-69
2021/05/22 07:33:57;;;;;;;2.77;1.80;;;10.70;99.90;;;;;;5095045;28;20406;-69
2021/05/22 07:36:23;;;;;;;3.00;1.63;;;10.60;99.90;;;;;;5094856;28;20414;-69
2021/05/22 07:38:48;;;;;;;4.10;1.40;;;10.70;99.90;;;;;;5095242;28;20155;-69
2021/05/22 07:41:14;;;;;;;4.90;1.80;;;10.70;99.90;;;;;;5080137;28;20551;-69
2021/05/22 07:43:39;;;;;;;4.37;1.70;;;10.70;99.90;;;;;;5074602;28;20164;-69
2021/05/22 07:46:05;;;;;;;4.00;1.97;;;10.70;99.90;;;;;;5074547;28;20543;-69
2021/05/22 07:48:31;;;;;;;7.27;1.70;;;10.60;99.90;;;;;;5074528;28;20185;-69
2021/05/22 07:50:56;;;;;;;5.27;1.73;;;10.60;99.90;;;;;;5074641;28;20164;-69
2021/05/22 07:53:22;;;;;;;4.60;2.00;;;10.60;99.90;;;;;;5093178;28;20264;-69
2021/05/22 07:55:48;;;;;;;6.07;1.97;;;10.70;99.90;;;;;;5094500;28;20605;-69
2021/05/22 07:58:17;;;;;;;4.07;1.70;;;10.70;99.90;;;;;;5094402;28;20534;-69
2021/05/22 08:00:44;;;;;;;8.70;2.63;;;10.70;99.90;;;;;;5094246;28;20484;-69
2021/05/22 08:03:09;;;;;;;3.27;1.63;;;10.70;99.90;;;;;;5094471;28;20399;-69
2021/05/22 08:05:35;;;;;;;5.47;1.87;;;10.80;99.90;;;;;;5094410;28;20427;-69
2021/05/22 08:08:00;;;;;;;3.23;1.70;;;10.70;99.90;;;;;;5094748;28;20164;-69
2021/05/22 08:10:26;;;;;;;5.63;2.87;;;10.70;99.90;;;;;;5085908;28;20225;-69
2021/05/22 08:12:52;;;;;;;4.43;1.70;;;10.80;99.90;;;;;;5073872;28;20163;-69
2021/05/22 08:15:17;;;;;;;3.23;1.60;;;10.90;99.90;;;;;;5073916;28;20539;-69
2021/05/22 08:17:43;;;;;;;3.53;1.60;;;10.80;99.90;;;;;;5074121;28;20179;-69
2021/05/22 08:20:11;;;;;;;3.40;1.93;;;10.80;99.90;;;;;;5073919;28;20256;-69
2021/05/22 08:22:37;;;;;;;3.33;1.70;;;10.80;99.90;;;;;;5074311;28;20467;-69
2021/05/22 08:25:04;;;;;;;10.30;2.50;;;10.80;99.90;;;;;;5073767;28;20397;-68
2021/05/22 08:27:30;;;;;;;3.37;1.80;;;10.80;99.90;;;;;;5093439;28;20443;-69
2021/05/22 08:29:57;;;;;;;3.03;1.80;;;10.80;99.90;;;;;;5093802;28;20753;-69
2021/05/22 08:32:24;;;;;;;2.70;1.80;;;10.80;99.90;;;;;;5093708;28;20467;-69
2021/05/22 08:34:50;;;;;;;3.20;1.73;;;10.80;99.90;;;;;;5093856;28;20422;-69
2021/05/22 08:37:19;;;;;;;2.87;1.50;;;10.80;99.90;;;;;;5094388;28;20401;-69
2021/05/22 08:39:45;;;;;;;3.63;1.43;;;10.80;99.90;;;;;;5092439;28;20608;-69
2021/05/22 08:42:15;;;;;;;4.30;1.47;;;10.80;99.90;;;;;;5073433;28;20453;-70
2021/05/22 08:44:42;;;;;;;7.57;1.63;;;10.80;99.90;;;;;;5093580;28;20178;-69
2021/05/22 08:47:09;;;;;;;4.27;1.37;;;10.90;99.90;;;;;;5093588;28;20378;-69
2021/05/22 08:49:43;;;;;;;2.60;1.20;;;11.00;99.90;;;;;;5093617;28;20391;-69
2021/05/22 08:52:13;;;;;;;5.60;1.47;;;11.00;99.90;;;;;;5093980;28;20388;-69
2021/05/22 08:54:40;;;;;;;6.63;2.07;;;11.10;99.90;;;;;;5093309;28;20403;-69
2021/05/22 08:57:06;;;;;;;5.23;1.40;;;11.00;99.90;;;;;;5093631;28;20387;-69
2021/05/22 08:59:33;;;;;;;6.03;1.63;;;11.00;99.90;;;;;;5093228;28;20441;-69
2021/05/22 09:01:58;;;;;;;2.97;1.37;;;10.90;99.90;;;;;;5093286;28;20455;-69
2021/05/22 09:04:24;;;;;;;4.50;1.80;;;10.90;99.90;;;;;;5093210;28;20411;-69
2021/05/22 09:07:05;;;;;;;4.57;1.43;;;10.90;99.90;;;;;;5093833;28;20507;-69
2021/05/22 09:09:41;;;;;;;4.07;1.67;;;10.80;99.90;;;;;;5093451;28;20214;-69
2021/05/22 09:12:07;;;;;;;5.23;2.60;;;10.90;99.90;;;;;;5093345;28;20404;-69
2021/05/22 09:17:17;;;;;;;5.20;2.10;;;10.80;99.90;;;;;;5102034;27;20874;-69
2021/05/22 09:19:43;;;;;;;4.40;1.70;;;10.80;99.90;;;;;;5090900;28;20720;-69
2021/05/22 09:22:21;;;;;;;5.80;2.07;;;10.90;99.90;;;;;;5090791;28;20387;-69
2021/05/22 09:25:07;;;;;;;3.50;1.47;;;10.90;99.90;;;;;;5090810;28;20433;-69
2021/05/22 09:27:37;;;;;;;5.97;2.20;;;10.80;99.90;;;;;;5075544;28;20903;-69
2021/05/22 09:30:08;;;;;;;4.30;1.73;;;10.80;99.90;;;;;;5090354;28;20478;-69
2021/05/22 09:32:34;;;;;;;4.40;1.80;;;10.70;99.90;;;;;;5090204;28;20391;-69
2021/05/22 09:34:59;;;;;;;2.97;1.43;;;10.80;99.90;;;;;;5090298;28;20526;-69
2021/05/22 09:37:25;;;;;;;3.10;1.47;;;10.80;99.90;;;;;;5090350;28;20164;-69
2021/05/22 09:39:53;;;;;;;3.50;1.00;;;10.80;99.90;;;;;;5090531;28;20173;-69
2021/05/22 09:42:27;;;;;;;3.07;1.27;;;10.80;99.90;;;;;;5090387;28;20162;-69
2021/05/22 09:44:53;;;;;;;3.50;1.70;;;10.90;99.90;;;;;;5090095;28;20395;-69
2021/05/22 09:47:19;;;;;;;2.27;1.23;;;10.90;99.90;;;;;;5090262;28;20392;-69
2021/05/22 09:49:49;;;;;;;3.57;1.30;;;11.00;99.90;;;;;;5090467;28;20466;-69
2021/05/22 09:52:16;;;;;;;3.37;1.40;;;11.00;99.90;;;;;;5090012;28;20408;-69
2021/05/22 10:05:33;;;;;;;3.40;1.30;;;11.10;99.90;;;;;;5111013;27;20524;-69
2021/05/22 10:08:00;;;;;;;3.73;1.70;;;11.00;99.90;;;;;;5097577;28;20451;-69
2021/05/22 10:10:44;;;;;;;3.63;1.93;;;11.00;99.90;;;;;;5070309;28;20391;-69
2021/05/22 10:13:10;;;;;;;10.17;2.00;;;11.10;99.90;;;;;;5077377;28;20415;-69
2021/05/22 10:15:36;;;;;;;2.97;1.50;;;11.10;99.90;;;;;;5090629;28;20490;-69
2021/05/22 10:18:03;;;;;;;4.97;1.70;;;11.20;99.90;;;;;;5090873;28;20498;-69
2021/05/22 10:20:28;;;;;;;6.17;1.93;;;11.20;99.90;;;;;;5090651;28;20532;-69
2021/05/22 10:22:55;;;;;;;3.27;1.80;;;11.20;99.90;;;;;;5090410;28;20395;-69
2021/05/22 10:25:21;;;;;;;4.23;1.70;;;11.20;99.90;;;;;;5080581;28;20243;-69
2021/05/22 10:27:48;;;;;;;9.17;2.07;;;11.20;99.90;;;;;;5069922;28;20430;-68
2021/05/22 10:30:16;;;;;;;2.40;1.23;;;11.20;99.90;;;;;;5070254;28;20450;-68
2021/05/22 10:32:43;;;;;;;3.23;1.60;;;11.20;99.90;;;;;;5070183;28;20772;-69
2021/05/22 10:35:12;;;;;;;5.70;1.57;;;11.20;99.90;;;;;;5080816;28;20462;-68
2021/05/22 10:40:16;;;;;;;5.23;2.00;;;11.10;99.90;;;;;;5172896;27;20260;-69
2021/05/22 10:42:57;;;;;;;5.30;2.03;;;11.10;99.90;;;;;;5139692;27;20432;-69
2021/05/22 10:45:26;;;;;;;14.57;2.67;;;11.10;99.90;;;;;;5131728;28;20412;-69
2021/05/22 10:47:51;;;;;;;2.80;1.97;;;11.00;99.90;;;;;;5131798;28;20485;-69
2021/05/22 10:50:37;;;;;;;7.00;2.20;;;11.00;99.90;;;;;;5131415;28;20500;-69
2021/05/22 10:56:15;;;;;;;5.63;2.40;;;11.00;99.90;;;;;;5090780;27;20503;-68
2021/05/22 11:01:39;;;;;;;3.50;1.90;;;11.20;99.90;;;;;;5132226;27;20579;-69
2021/05/22 11:12:29;;;;;;;4.60;1.77;;;11.30;99.90;;;;;;5090710;27;20880;-68
2021/05/22 11:14:56;;;;;;;4.40;2.00;;;11.40;99.90;;;;;;5090021;28;20531;-69
2021/05/22 11:25:14;;;;;;;2.33;1.70;;;11.40;99.90;;;;;;5111068;27;20501;-69
2021/05/22 11:33:06;;;;;;;5.40;1.60;;;11.70;99.90;;;;;;5104144;27;20510;-69
2021/05/22 11:35:34;;;;;;;9.20;1.80;;;11.90;99.90;;;;;;5090460;28;20504;-69
2021/05/22 11:40:54;;;;;;;5.13;2.00;;;11.90;99.90;;;;;;5131554;27;20514;-68
2021/05/22 11:48:53;;;;;;;4.23;2.00;;;12.00;99.90;;;;;;5090828;28;20508;-69
2021/05/22 11:56:34;;;;;;;8.53;1.90;;;12.00;99.90;;;;;;5111078;27;20507;-69
2021/05/22 11:59:00;;;;;;;7.87;2.60;;;12.10;99.90;;;;;;5111907;28;20794;-69
2021/05/22 12:01:30;;;;;;;3.57;1.83;;;12.10;99.90;;;;;;5111450;28;20723;-69
2021/05/22 12:04:00;;;;;;;4.50;1.83;;;12.10;99.90;;;;;;5109900;28;20396;-70
2021/05/22 12:11:54;;;;;;;3.00;1.50;;;12.10;99.90;;;;;;5131906;27;20501;-69
2021/05/22 12:14:19;;;;;;;3.30;1.50;;;12.20;99.90;;;;;;5132066;28;20384;-69
2021/05/22 12:16:45;;;;;;;5.97;1.70;;;12.20;99.90;;;;;;5131575;28;20746;-69
2021/05/22 12:21:50;;;;;;;4.17;1.90;;;12.20;99.90;;;;;;5173210;27;20566;-69
2021/05/22 12:24:16;;;;;;;3.50;1.80;;;12.30;99.90;;;;;;5173341;27;20454;-69
2021/05/22 12:26:52;;;;;;;4.90;1.70;;;12.40;99.90;;;;;;5173145;27;20433;-69
2021/05/22 12:29:19;;;;;;;8.40;1.80;;;12.40;99.90;;;;;;5173360;27;20414;-69
2021/05/22 12:31:48;;;;;;;4.37;2.07;;;12.40;99.90;;;;;;5172694;27;20397;-69
2021/05/22 12:34:13;;;;;;;6.50;1.90;;;12.50;99.90;;;;;;5166224;27;20421;-69
2021/05/22 12:36:53;;;;;;;4.93;1.47;;;12.50;99.90;;;;;;5172893;27;20502;-69
2021/05/22 12:39:19;;;;;;;5.40;1.63;;;12.50;99.90;;;;;;5172920;27;20169;-69
2021/05/22 12:41:44;;;;;;;7.03;2.37;;;12.50;99.90;;;;;;5172836;27;20506;-69
2021/05/22 12:44:20;;;;;;;3.90;1.77;;;12.60;99.90;;;;;;5171960;27;20277;-69
2021/05/22 12:46:55;;;;;;;4.90;1.83;;;12.60;99.90;;;;;;5172848;27;20165;-70
2021/05/22 12:49:21;;;;;;;3.43;1.93;;;12.60;99.90;;;;;;5172696;27;20406;-69
2021/05/22 13:02:30;;;;;;;6.33;2.00;;;12.70;99.90;;;;;;5090643;27;20530;-70
2021/05/22 13:05:16;;;;;;;5.20;1.80;;;12.70;99.90;;;;;;5090335;28;20747;-69
2021/05/22 13:10:20;;;;;;;5.50;1.90;;;12.70;99.90;;;;;;5111396;27;20514;-69
2021/05/22 13:13:14;;;;;;;4.30;1.60;;;12.70;99.90;;;;;;5111384;28;20403;-69
2021/05/22 13:18:28;;;;;;;4.17;2.00;;;12.70;99.90;;;;;;5111037;27;20580;-69
2021/05/22 13:21:05;;;;;;;6.43;2.37;;;12.70;99.90;;;;;;5110960;28;20789;-70
2021/05/22 13:23:40;;;;;;;4.57;2.90;;;12.70;99.90;;;;;;5111209;28;20434;-69
2021/05/22 13:26:27;;;;;;;4.70;2.50;;;12.80;99.90;;;;;;5111307;28;20377;-69
2021/05/22 13:28:55;;;;;;;6.83;2.07;;;12.80;99.90;;;;;;5095905;28;20750;-69
2021/05/22 13:31:26;;;;;;;3.80;1.73;;;12.80;99.90;;;;;;5109892;28;20385;-69
2021/05/22 13:33:55;;;;;;;5.63;1.90;;;12.80;99.90;;;;;;5110402;28;20412;-69
2021/05/22 13:36:24;;;;;;;4.70;1.97;;;12.80;99.90;;;;;;5110567;28;20448;-69
2021/05/22 13:38:50;;;;;;;6.10;1.77;;;12.80;99.90;;;;;;5110706;28;20389;-69
2021/05/22 13:41:34;;;;;;;3.33;1.40;;;12.80;99.90;;;;;;5110837;28;20472;-69
2021/05/22 13:44:01;;;;;;;2.83;1.57;;;12.80;99.90;;;;;;5110557;28;20385;-69
2021/05/22 13:46:27;;;;;;;5.80;1.70;;;12.80;99.90;;;;;;5110591;28;20891;-69
2021/05/22 13:48:53;;;;;;;4.30;1.73;;;12.80;99.90;;;;;;5109612;28;20451;-69
2021/05/22 13:51:19;;;;;;;4.20;2.00;;;12.80;99.90;;;;;;5110503;28;20569;-69
2021/05/22 13:53:45;;;;;;;3.27;1.33;;;12.80;99.90;;;;;;5110314;28;20156;-69
2021/05/22 13:56:10;;;;;;;3.77;1.90;;;12.80;99.90;;;;;;5110808;28;20904;-69
2021/05/22 13:58:37;;;;;;;8.27;1.80;;;12.80;99.90;;;;;;5110234;28;20193;-69
2021/05/22 14:01:03;;;;;;;2.80;1.53;;;12.90;99.90;;;;;;5110172;28;20143;-69
2021/05/22 14:03:29;;;;;;;5.50;1.50;;;12.90;99.90;;;;;;5108115;28;20404;-69
2021/05/22 14:05:54;;;;;;;6.70;1.67;;;12.90;99.90;;;;;;5090326;28;20405;-69
2021/05/22 14:08:20;;;;;;;6.03;2.23;;;12.90;99.90;;;;;;5089673;28;20151;-69
2021/05/22 14:10:46;;;;;;;5.07;1.60;;;12.80;99.90;;;;;;5090029;28;20170;-69
2021/05/22 14:13:11;;;;;;;4.13;2.00;;;12.80;99.90;;;;;;5089797;28;20152;-68
2021/05/22 14:15:37;;;;;;;3.63;2.20;;;12.70;99.90;;;;;;5089597;28;20489;-69